Date,TemperatureHighF,TemperatureAvgF,TemperatureLowF,DewpointHighF,DewpointAvgF,DewpointLowF,HumidityHigh,HumidityAvg,HumidityLow,PressureMaxIn,PressureMinIn,WindSpeedMaxMPH,WindSpeedAvgMPH,GustSpeedMaxMPH,PrecipitationSumIn
2013-9-1,67.8,63.3,56.6,63.5,58.5,51.6,94,85,74,30.05,29.73,11,1,11,0.01
2013-9-2,71.3,59.3,54.0,55.8,52.3,49.8,90,78,51,30.15,30.04,5,0,7,0.00
2013-9-3,81.3,65.1,50.2,63.3,57.3,48.5,99,78,50,30.10,29.98,12,1,12,0.00
2013-9-4,77.6,68.0,62.0,65.2,59.9,52.8,90,76,53,30.19,30.01,7,0,8,0.00
2013-9-5,82.1,66.6,54.5,62.0,56.8,52.1,97,73,43,30.26,30.08,12,0,12,0.00
2013-9-6,92.5,76.7,65.8,72.4,67.5,61.9,96,75,47,30.08,29.83,13,1,13,0.00
2013-9-7,84.3,74.9,66.7,75.9,69.4,60.0,99,84,67,30.09,29.86,8,0,8,0.00
2013-9-8,66.7,60.4,57.5,60.6,56.2,52.1,98,87,67,30.10,29.91,11,2,13,0.02
2013-9-9,69.9,65.9,60.1,69.6,65.3,58.3,100,98,94,29.92,29.67,13,1,15,0.03
2013-9-10,78.8,67.4,62.2,68.6,63.5,60.2,99,88,63,29.97,29.75,11,1,11,0.01
2013-9-11,80.3,68.0,60.5,64.3,59.3,53.8,97,75,47,30.13,29.96,10,0,11,0.01
2013-9-12,70.3,60.0,52.5,58.5,52.9,49.1,97,79,54,30.29,30.12,10,1,10,0.00
2013-9-13,72.1,58.2,47.0,53.1,49.1,45.1,95,74,46,30.31,30.07,8,1,8,0.00
2013-9-14,67.9,55.7,48.7,57.9,51.4,45.3,98,86,64,30.07,29.93,12,1,12,0.00
2013-9-15,57.9,54.4,47.2,55.9,51.6,45.0,99,91,73,30.39,29.97,5,1,6,0.00
2013-9-16,65.8,53.5,43.1,50.2,44.9,41.3,100,75,47,30.47,30.26,11,1,11,0.00
2013-9-17,63.4,55.6,47.6,56.2,50.2,41.5,94,82,70,30.27,29.95,19,4,20,0.00
2013-9-18,68.9,62.6,56.4,67.1,61.7,54.8,100,97,92,29.95,29.68,11,2,12,0.01
2013-9-19,68.1,64.4,57.3,67.2,63.8,55.3,100,98,93,29.81,29.63,11,1,11,0.01
2013-9-20,60.7,55.0,49.3,55.9,51.8,46.9,99,90,73,29.97,29.78,10,1,11,0.01
2013-9-21,60.4,51.0,45.9,48.9,46.0,43.8,95,83,63,30.05,29.96,9,0,9,0.01
2013-9-22,68.9,56.9,46.9,56.0,50.4,44.2,95,80,62,30.00,29.85,16,3,20,0.00
2013-9-23,70.9,62.4,55.1,56.5,53.8,50.8,87,74,57,29.92,29.84,21,5,21,0.00
2013-9-24,70.7,60.4,52.3,60.0,54.3,49.7,94,81,64,29.99,29.91,10,1,11,0.00
2013-9-25,72.0,60.7,51.9,60.4,54.2,51.0,98,81,57,29.99,29.88,14,1,14,0.00
2013-9-26,75.0,65.0,56.6,62.2,57.4,51.4,87,77,59,29.92,29.80,21,3,21,0.00
2013-9-27,73.0,68.1,62.8,66.8,63.1,60.3,96,84,70,29.88,29.73,23,3,27,0.00
2013-9-28,72.7,58.9,46.3,63.1,54.2,44.1,97,85,71,29.89,29.55,19,4,20,0.00
2013-9-29,73.3,57.5,43.1,55.8,47.7,41.9,97,73,43,29.94,29.70,16,2,19,0.00
2013-9-30,74.2,63.2,54.5,57.5,52.5,47.3,86,68,53,29.70,29.56,14,2,17,0.00